Prentiss, Kentucky
Current Conditions -  °F | °C
As of 9:35 AM on Saturday 25 Oct 2014 (Local Time) from K2I0 Reporting Station
Clear Clear  
Wind Chill: 67°   Ceiling: Unl
Heat Index: 67°   Visibility: 10mi
Dew Point: 58°   Wind: 9mph
Humidity: 75%   Direction: 250°WSW
Pressure: 30.04"   Gusts: NA
Location:  37.3559°N, 86.8747°W
Report Text: K2I0 251435Z AUTO 25008KT 10SM CLR 19/15 A3004 RMK AO2 T01920146
Loading
Personal Weather Stations






























Interactive Weather Map
Tropical Storm Tracking
New forecast layout! Learn more

10-Day Weather Forecast

Advertisements
Track Severe Weather on mobile